createdAt,value
2018-09-04T00:01:29.576Z,61.33
2018-09-04T00:03:57.992Z,62.33
2018-09-04T00:06:26.442Z,62.03
2018-09-04T00:08:54.843Z,67.60
2018-09-04T00:11:23.294Z,62.40
2018-09-04T00:13:51.665Z,63.40
2018-09-04T00:16:20.145Z,61.17
2018-09-04T00:18:48.584Z,70.47
2018-09-04T00:21:17.064Z,61.30
2018-09-04T00:23:45.458Z,58.17
2018-09-04T00:26:13.896Z,61.17
2018-09-04T00:28:43.372Z,58.73
2018-09-04T00:31:11.780Z,58.93
2018-09-04T00:33:40.151Z,64.57
2018-09-04T00:36:09.229Z,60.50
2018-09-04T00:38:37.634Z,60.80
2018-09-04T00:41:06.186Z,58.10
2018-09-04T00:43:34.640Z,63.10
2018-09-04T00:46:04.040Z,59.03
2018-09-04T00:48:32.440Z,57.30
2018-09-04T00:51:00.926Z,62.67
2018-09-04T00:53:29.552Z,65.17
2018-09-04T00:55:57.976Z,61.20
2018-09-04T00:58:26.449Z,58.57
2018-09-04T01:00:55.428Z,59.60
2018-09-04T01:03:24.326Z,60.63
2018-09-04T01:05:52.748Z,60.40
2018-09-04T01:08:21.094Z,62.03
2018-09-04T01:10:49.558Z,64.87
2018-09-04T01:13:17.968Z,63.13
2018-09-04T01:15:46.355Z,67.80
2018-09-04T01:18:14.739Z,62.30
2018-09-04T01:20:43.251Z,64.83
2018-09-04T01:23:11.597Z,62.43
2018-09-04T01:25:40.002Z,69.20
2018-09-04T01:28:09.284Z,64.03
2018-09-04T01:30:38.026Z,63.73
2018-09-04T01:33:06.508Z,62.70
2018-09-04T01:35:34.921Z,70.20
2018-09-04T01:38:03.321Z,74.83
2018-09-04T01:40:31.727Z,71.30
2018-09-04T01:43:00.140Z,78.07
2018-09-04T01:45:28.504Z,75.67
2018-09-04T01:47:56.921Z,75.07
2018-09-04T01:50:25.288Z,69.13
2018-09-04T01:52:53.729Z,76.07
2018-09-04T01:55:22.137Z,73.33
2018-09-04T01:57:50.646Z,77.33
2018-09-04T02:00:19.347Z,80.07
2018-09-04T02:02:47.717Z,78.67
2018-09-04T02:05:16.309Z,82.83
2018-09-04T02:07:45.401Z,82.70
2018-09-04T02:10:13.809Z,80.93
2018-09-04T02:12:42.166Z,90.50
2018-09-04T02:15:10.532Z,88.27
2018-09-04T02:17:38.923Z,86.37
2018-09-04T02:20:07.303Z,90.63
2018-09-04T02:22:35.692Z,78.47
2018-09-04T02:25:04.096Z,92.47
2018-09-04T02:27:32.478Z,84.97
2018-09-04T02:30:00.913Z,92.87
2018-09-04T02:32:29.942Z,90.67
2018-09-04T02:34:58.757Z,93.17
2018-09-04T02:37:27.541Z,96.33
2018-09-04T02:39:56.421Z,92.53
2018-09-04T02:42:25.033Z,90.33
2018-09-04T02:44:53.809Z,93.93
2018-09-04T02:47:22.783Z,92.70
2018-09-04T02:49:51.215Z,95.47
2018-09-04T02:52:19.726Z,99.90
2018-09-04T02:54:48.296Z,93.40
2018-09-04T02:57:17.172Z,93.73
2018-09-04T02:59:45.560Z,90.40
2018-09-04T03:02:14.055Z,94.47
2018-09-04T03:04:43.101Z,86.87
2018-09-04T03:07:12.095Z,89.83
2018-09-04T03:09:40.660Z,85.33
2018-09-04T03:12:09.069Z,88.03
2018-09-04T03:14:37.495Z,99.27
2018-09-04T03:17:05.990Z,104.07
2018-09-04T03:19:34.419Z,97.83
2018-09-04T03:22:02.837Z,98.07
2018-09-04T03:24:31.320Z,103.47
2018-09-04T03:26:59.729Z,95.40
2018-09-04T03:29:28.224Z,97.23
2018-09-04T03:31:56.661Z,97.40
2018-09-04T03:34:25.161Z,106.33
2018-09-04T03:36:53.979Z,95.27
2018-09-04T03:39:22.371Z,93.03
2018-09-04T03:41:50.779Z,101.93
2018-09-04T03:44:19.219Z,87.97
2018-09-04T03:46:47.621Z,94.90
2018-09-04T03:49:16.044Z,87.90
2018-09-04T03:51:44.468Z,91.17
2018-09-04T03:54:12.848Z,96.03
2018-09-04T03:56:41.273Z,97.37
2018-09-04T03:59:09.717Z,107.10
2018-09-04T04:01:38.153Z,92.53
2018-09-04T04:04:06.883Z,98.77
2018-09-04T04:06:35.596Z,96.97
2018-09-04T04:09:04.879Z,93.90
2018-09-04T04:11:33.219Z,100.57
2018-09-04T04:14:01.592Z,97.13
2018-09-04T04:16:30.271Z,105.97
2018-09-04T04:18:58.707Z,105.20
2018-09-04T04:21:27.099Z,102.23
2018-09-04T04:23:55.497Z,88.07
2018-09-04T04:26:23.932Z,94.20
2018-09-04T04:28:52.545Z,91.63
2018-09-04T04:31:20.940Z,95.80
2018-09-04T04:33:49.442Z,100.53
2018-09-04T04:36:18.223Z,90.97
2018-09-04T04:38:46.607Z,95.80
2018-09-04T04:41:15.017Z,81.63
2018-09-04T04:43:43.374Z,93.77
2018-09-04T04:46:11.912Z,94.47
2018-09-04T04:48:40.356Z,99.80
2018-09-04T04:51:08.726Z,83.37
2018-09-04T04:53:37.433Z,84.00
2018-09-04T04:56:05.896Z,82.40
2018-09-04T04:58:34.317Z,87.47
2018-09-04T05:01:02.827Z,87.40
2018-09-04T05:03:31.256Z,89.87
2018-09-04T05:05:59.670Z,79.83
2018-09-04T05:08:28.074Z,78.57
2018-09-04T05:10:56.543Z,83.27
2018-09-04T05:13:25.007Z,82.37
2018-09-04T05:15:53.441Z,80.53
2018-09-04T05:18:21.850Z,79.70
2018-09-04T05:20:50.248Z,84.57
2018-09-04T05:23:18.689Z,76.70
2018-09-04T05:25:47.116Z,77.07
2018-09-04T05:28:15.533Z,76.77
2018-09-04T05:30:43.971Z,77.73
2018-09-04T05:33:16.523Z,81.43
2018-09-04T05:35:47.192Z,79.53
2018-09-04T05:38:15.613Z,78.63
2018-09-04T05:40:44.057Z,87.53
2018-09-04T05:43:16.239Z,76.00
2018-09-04T05:45:44.956Z,78.27
2018-09-04T05:48:15.137Z,76.87
2018-09-04T05:50:43.630Z,79.07
2018-09-04T05:53:12.089Z,76.27
2018-09-04T05:55:40.524Z,76.30
2018-09-04T05:58:09.056Z,73.63
2018-09-04T06:00:43.602Z,74.13
2018-09-04T06:03:12.005Z,71.03
2018-09-04T06:05:40.352Z,69.33
2018-09-04T06:08:08.800Z,67.13
2018-09-04T06:10:37.197Z,70.27
2018-09-04T06:13:05.635Z,71.03
2018-09-04T06:15:34.039Z,68.87
2018-09-04T06:18:02.497Z,67.87
2018-09-04T06:20:30.985Z,69.90
2018-09-04T06:22:59.437Z,65.50
2018-09-04T06:25:27.813Z,65.20
2018-09-04T06:27:56.436Z,71.20
2018-09-04T06:30:25.173Z,66.93
2018-09-04T06:32:54.034Z,70.33
2018-09-04T06:35:23.078Z,68.03
2018-09-04T06:37:51.844Z,65.07
2018-09-04T06:40:20.442Z,69.07
2018-09-04T06:42:48.904Z,71.33
2018-09-04T06:45:17.775Z,66.63
2018-09-04T06:47:47.387Z,66.23
2018-09-04T06:50:15.871Z,64.97
2018-09-04T06:52:44.918Z,65.03
2018-09-04T06:55:13.419Z,62.37
2018-09-04T06:57:41.898Z,65.30
2018-09-04T07:00:12.603Z,66.20
2018-09-04T07:02:41.070Z,64.07
2018-09-04T07:05:10.476Z,64.23
2018-09-04T07:07:38.862Z,63.07
2018-09-04T07:10:07.533Z,66.23
2018-09-04T07:12:35.971Z,66.67
2018-09-04T07:15:04.552Z,67.70
2018-09-04T07:17:32.922Z,68.80
2018-09-04T07:20:01.305Z,68.83
2018-09-04T07:22:29.762Z,59.63
2018-09-04T07:24:58.119Z,61.37
2018-09-04T07:27:26.534Z,61.70
2018-09-04T07:29:54.887Z,65.67
2018-09-04T07:32:23.331Z,62.27
2018-09-04T07:34:51.698Z,62.90
2018-09-04T07:37:20.432Z,59.87
2018-09-04T07:39:48.876Z,62.37
2018-09-04T07:42:17.335Z,63.27
2018-09-04T07:44:45.880Z,60.20
2018-09-04T07:47:14.202Z,57.57
2018-09-04T07:49:42.583Z,58.93
2018-09-04T07:52:10.957Z,59.63
2018-09-04T07:54:39.347Z,57.40
2018-09-04T07:57:07.916Z,58.33
2018-09-04T07:59:36.300Z,61.00
2018-09-04T08:02:04.722Z,61.17
2018-09-04T08:04:33.058Z,62.07
2018-09-04T08:07:01.439Z,56.83
2018-09-04T08:09:29.797Z,57.53
2018-09-04T08:11:58.211Z,61.43
2018-09-04T08:14:27.392Z,59.30
2018-09-04T08:16:55.831Z,60.17
2018-09-04T08:19:24.255Z,56.57
2018-09-04T08:21:52.686Z,55.80
2018-09-04T08:24:21.045Z,55.93
2018-09-04T08:26:49.430Z,49.37
2018-09-04T08:29:19.079Z,60.30
2018-09-04T08:31:47.475Z,51.23
2018-09-04T08:34:15.853Z,57.50
2018-09-04T08:36:44.268Z,51.33
2018-09-04T08:39:12.656Z,54.70
2018-09-04T08:41:41.021Z,52.10
2018-09-04T08:44:09.705Z,54.33
2018-09-04T08:46:38.100Z,51.40
2018-09-04T08:49:06.485Z,51.20
2018-09-04T08:51:35.234Z,56.77
2018-09-04T08:54:03.624Z,56.47
2018-09-04T08:56:32.745Z,53.17
2018-09-04T08:59:01.131Z,49.53
2018-09-04T09:01:29.612Z,51.67
2018-09-04T09:03:58.309Z,50.07
2018-09-04T09:06:26.748Z,56.07
2018-09-04T09:08:55.198Z,54.13
2018-09-04T09:11:23.699Z,57.57
2018-09-04T09:13:52.133Z,51.30
2018-09-04T09:16:20.636Z,56.00
2018-09-04T09:18:49.069Z,55.20
2018-09-04T09:21:17.464Z,55.83
2018-09-04T09:23:45.856Z,53.93
2018-09-04T09:26:14.268Z,55.60
2018-09-04T09:28:43.265Z,60.30
2018-09-04T09:31:11.775Z,55.57
2018-09-04T09:33:40.204Z,52.73
2018-09-04T09:36:08.663Z,52.63
2018-09-04T09:38:37.413Z,53.23
2018-09-04T09:41:05.898Z,54.60
2018-09-04T09:43:34.318Z,56.30
2018-09-04T09:46:02.778Z,54.30
2018-09-04T09:48:36.918Z,51.40
2018-09-04T09:51:05.438Z,53.87
2018-09-04T09:53:34.189Z,57.50
2018-09-04T09:56:02.353Z,53.30
2018-09-04T09:58:30.739Z,54.53
2018-09-04T10:01:04.580Z,55.07
2018-09-04T10:03:38.464Z,54.23
2018-09-04T10:06:06.877Z,52.63
2018-09-04T10:08:35.227Z,53.03
2018-09-04T10:11:03.600Z,53.97
2018-09-04T10:13:31.989Z,52.20
2018-09-04T10:16:00.372Z,51.30
2018-09-04T10:18:28.709Z,54.30
2018-09-04T10:20:57.086Z,51.00
2018-09-04T10:23:25.460Z,51.57
2018-09-04T10:25:53.870Z,57.47
2018-09-04T10:28:22.345Z,50.93
2018-09-04T10:30:50.797Z,50.03
2018-09-04T10:33:19.171Z,52.90
2018-09-04T10:35:47.629Z,52.40
2018-09-04T10:38:16.068Z,51.80
2018-09-04T10:40:45.684Z,54.50
2018-09-04T10:43:14.071Z,51.53
2018-09-04T10:45:47.788Z,53.27
2018-09-04T10:48:20.409Z,50.63
2018-09-04T10:50:48.915Z,50.00
2018-09-04T10:53:17.345Z,49.03
2018-09-04T10:55:45.941Z,45.77
2018-09-04T10:58:14.202Z,48.53
2018-09-04T11:00:42.838Z,53.77
2018-09-04T11:03:11.313Z,47.93
2018-09-04T11:05:39.991Z,43.30
2018-09-04T11:08:08.418Z,43.37
2018-09-04T11:10:36.825Z,48.23
2018-09-04T11:13:05.831Z,50.03
2018-09-04T11:15:34.272Z,47.07
2018-09-04T11:18:02.657Z,47.47
2018-09-04T11:20:31.076Z,47.97
2018-09-04T11:22:59.735Z,47.73
2018-09-04T11:25:28.285Z,42.70
2018-09-04T11:27:56.741Z,47.27
2018-09-04T11:30:25.109Z,45.77
2018-09-04T11:32:53.517Z,42.37
2018-09-04T11:35:21.946Z,45.57
2018-09-04T11:37:51.003Z,41.27
2018-09-04T11:40:19.335Z,44.13
2018-09-04T11:42:47.921Z,41.50
2018-09-04T11:45:16.486Z,41.27
2018-09-04T11:47:44.895Z,43.20
2018-09-04T11:50:13.289Z,42.63
2018-09-04T11:52:42.033Z,41.43
2018-09-04T11:55:11.165Z,41.30
2018-09-04T11:57:39.773Z,40.70
2018-09-04T12:00:09.993Z,42.93
2018-09-04T12:02:39.704Z,43.37
2018-09-04T12:05:08.163Z,40.53
2018-09-04T12:07:36.953Z,40.63
2018-09-04T12:10:06.342Z,42.43
2018-09-04T12:12:35.680Z,39.97
2018-09-04T12:15:03.906Z,41.40
2018-09-04T12:17:32.345Z,40.17
2018-09-04T12:20:24.864Z,39.43
2018-09-04T12:22:53.440Z,38.20
2018-09-04T12:25:21.891Z,38.77
2018-09-04T12:27:50.335Z,38.60
2018-09-04T12:30:18.784Z,40.57
2018-09-04T12:32:47.538Z,37.30
2018-09-04T12:35:15.853Z,39.60
2018-09-04T12:37:44.205Z,38.47
2018-09-04T12:40:12.635Z,40.73
2018-09-04T12:42:41.027Z,40.67
2018-09-04T12:45:09.471Z,35.03
2018-09-04T12:47:37.908Z,35.50
2018-09-04T12:50:06.570Z,40.47
2018-09-04T12:52:35.094Z,35.70
2018-09-04T12:55:03.488Z,35.13
2018-09-04T12:57:32.145Z,36.63
2018-09-04T13:00:00.594Z,36.07
2018-09-04T13:02:28.955Z,38.50
2018-09-04T13:04:57.640Z,37.53
2018-09-04T13:07:26.024Z,39.80
2018-09-04T13:09:54.455Z,37.93
2018-09-04T13:12:22.906Z,37.67
2018-09-04T13:14:51.356Z,36.93
2018-09-04T13:17:19.803Z,38.90
2018-09-04T13:19:48.287Z,35.47
2018-09-04T13:22:16.963Z,34.60
2018-09-04T13:24:45.670Z,34.57
2018-09-04T13:27:14.064Z,34.37
2018-09-04T13:29:42.485Z,32.83
2018-09-04T13:32:11.212Z,37.87
2018-09-04T13:34:39.672Z,35.60
2018-09-04T13:37:08.566Z,36.63
2018-09-04T13:39:36.926Z,37.27
2018-09-04T13:42:05.338Z,35.20
2018-09-04T13:44:33.767Z,38.30
2018-09-04T13:47:02.135Z,35.90
2018-09-04T13:49:30.922Z,34.97
2018-09-04T13:51:59.424Z,38.93
2018-09-04T13:54:27.931Z,35.47
2018-09-04T13:56:56.408Z,33.50
2018-09-04T13:59:24.774Z,31.70
2018-09-04T14:01:53.147Z,31.70
2018-09-04T14:04:21.666Z,30.30
2018-09-04T14:06:50.248Z,32.60
2018-09-04T14:09:18.726Z,30.27
2018-09-04T14:11:47.408Z,29.93
2018-09-04T14:14:15.866Z,28.87
2018-09-04T14:16:44.284Z,27.47
2018-09-04T14:19:12.740Z,29.47
2018-09-04T14:21:41.226Z,28.07
2018-09-04T14:24:09.668Z,25.90
2018-09-04T14:26:38.098Z,26.77
2018-09-04T14:29:07.041Z,26.30
2018-09-04T14:31:35.107Z,24.90
2018-09-04T14:34:03.522Z,25.43
2018-09-04T14:36:32.140Z,22.10
2018-09-04T14:39:00.399Z,23.40
2018-09-04T14:41:28.865Z,22.87
2018-09-04T14:43:57.251Z,21.97
2018-09-04T14:46:58.778Z,23.27
2018-09-04T14:49:27.470Z,22.00
2018-09-04T14:51:56.225Z,21.70
2018-09-04T14:54:24.664Z,23.47
2018-09-04T14:56:53.329Z,26.87
2018-09-04T14:59:22.118Z,26.00
2018-09-04T15:01:50.791Z,23.30
2018-09-04T15:04:19.529Z,21.23
2018-09-04T15:06:48.295Z,22.17
2018-09-04T15:09:16.963Z,24.20
2018-09-04T15:11:45.644Z,23.57
2018-09-04T15:14:14.093Z,25.23
2018-09-04T15:16:42.467Z,27.00
2018-09-04T15:19:10.988Z,26.73
2018-09-04T15:21:39.416Z,26.90
2018-09-04T15:24:07.817Z,26.33
2018-09-04T15:26:36.346Z,26.73
2018-09-04T15:29:04.846Z,27.87
2018-09-04T15:31:33.515Z,24.83
2018-09-04T15:34:01.871Z,25.27
2018-09-04T15:36:30.296Z,22.60
2018-09-04T15:38:58.666Z,24.17
2018-09-04T15:41:27.087Z,27.67
2018-09-04T15:43:55.482Z,28.63
2018-09-04T15:46:23.852Z,26.47
2018-09-04T15:48:57.758Z,28.13
2018-09-04T15:51:26.168Z,25.83
2018-09-04T15:53:54.527Z,28.03
2018-09-04T15:56:22.892Z,27.40
2018-09-04T15:58:51.276Z,27.47
2018-09-04T16:01:19.618Z,24.60
2018-09-04T16:03:48.027Z,29.47
2018-09-04T16:06:16.453Z,27.63
2018-09-04T16:08:45.206Z,26.80
2018-09-04T16:11:14.261Z,25.60
2018-09-04T16:13:42.657Z,26.77
2018-09-04T16:16:11.450Z,29.13
2018-09-04T16:18:40.089Z,24.13
2018-09-04T16:21:09.948Z,25.13
2018-09-04T16:23:38.312Z,29.67
2018-09-04T16:26:06.797Z,26.33
2018-09-04T16:28:35.693Z,26.77
2018-09-04T16:31:04.127Z,30.43
2018-09-04T16:33:33.429Z,27.07
2018-09-04T16:36:01.819Z,25.93
2018-09-04T16:38:30.229Z,25.93
2018-09-04T16:40:58.736Z,24.57
2018-09-04T16:43:27.157Z,25.97
2018-09-04T16:45:55.704Z,27.33
2018-09-04T16:48:24.126Z,27.07
2018-09-04T16:50:52.560Z,28.77
2018-09-04T16:53:21.346Z,25.10
2018-09-04T16:55:50.009Z,28.07
2018-09-04T16:58:18.387Z,27.57
2018-09-04T17:00:47.101Z,32.13
2018-09-04T17:03:15.606Z,34.07
2018-09-04T17:05:43.981Z,31.83
2018-09-04T17:08:13.729Z,28.17
2018-09-04T17:10:43.023Z,27.07
2018-09-04T17:13:11.791Z,25.93
2018-09-04T17:15:40.230Z,24.70
2018-09-04T17:18:08.700Z,24.70
2018-09-04T17:20:37.318Z,24.10
2018-09-04T17:23:07.668Z,23.10
2018-09-04T17:25:36.623Z,22.83
2018-09-04T17:28:05.097Z,22.10
2018-09-04T17:30:33.527Z,21.83
2018-09-04T17:33:01.892Z,20.63
2018-09-04T17:35:30.334Z,21.43
2018-09-04T17:37:59.367Z,20.33
2018-09-04T17:40:27.825Z,20.37
2018-09-04T17:42:57.184Z,20.47
2018-09-04T17:45:26.469Z,19.33
2018-09-04T17:47:57.079Z,19.07
2018-09-04T17:50:26.052Z,19.40
2018-09-04T17:52:55.065Z,21.50
2018-09-04T17:55:24.214Z,21.57
2018-09-04T17:57:55.003Z,22.43
2018-09-04T18:00:24.209Z,22.37
2018-09-04T18:02:53.147Z,23.87
2018-09-04T18:05:22.141Z,21.37
2018-09-04T18:07:52.615Z,22.23
2018-09-04T18:10:21.821Z,22.50
2018-09-04T18:12:51.003Z,20.57
2018-09-04T18:15:20.696Z,22.20
2018-09-04T18:17:49.766Z,23.73
2018-09-04T18:20:18.176Z,22.93
2018-09-04T18:22:46.635Z,22.40
2018-09-04T18:25:14.986Z,22.53
2018-09-04T18:27:43.728Z,21.47
2018-09-04T18:30:12.110Z,22.80
2018-09-04T18:32:40.552Z,22.60
2018-09-04T18:35:09.142Z,21.33
2018-09-04T18:37:37.577Z,20.13
2018-09-04T18:40:06.033Z,22.43
2018-09-04T18:42:34.411Z,21.10
2018-09-04T18:45:02.888Z,21.70
2018-09-04T18:47:31.468Z,20.97
2018-09-04T18:49:59.881Z,20.10
2018-09-04T18:52:28.293Z,21.43
2018-09-04T18:54:56.965Z,21.90
2018-09-04T18:57:25.521Z,22.27
2018-09-04T18:59:54.221Z,21.57
2018-09-04T19:02:22.840Z,23.63
2018-09-04T19:04:51.537Z,21.17
2018-09-04T19:07:20.001Z,22.20
2018-09-04T19:09:48.495Z,21.77
2018-09-04T19:12:16.996Z,23.03
2018-09-04T19:14:45.660Z,21.50
2018-09-04T19:17:14.126Z,28.83
2018-09-04T19:19:42.853Z,24.83
2018-09-04T19:22:12.015Z,23.87
2018-09-04T19:24:40.508Z,25.43
2018-09-04T19:27:09.608Z,23.47
2018-09-04T19:29:38.814Z,25.20
2018-09-04T19:32:07.925Z,25.57
2018-09-04T19:34:36.325Z,23.73
2018-09-04T19:37:04.724Z,23.00
2018-09-04T19:39:33.208Z,24.70
2018-09-04T19:42:01.594Z,23.67
2018-09-04T19:44:30.017Z,23.50
2018-09-04T19:46:58.550Z,24.60
2018-09-04T19:49:28.699Z,24.30
2018-09-04T19:51:58.667Z,24.37
2018-09-04T19:54:27.197Z,25.00
2018-09-04T19:56:55.644Z,23.93
2018-09-04T19:59:24.136Z,23.53
2018-09-04T20:01:52.635Z,24.23
2018-09-04T20:04:21.091Z,24.53
2018-09-04T20:06:49.585Z,24.53
2018-09-04T20:09:18.000Z,24.67
2018-09-04T20:11:46.459Z,24.87
2018-09-04T20:14:15.033Z,24.40
2018-09-04T20:16:43.455Z,25.10
2018-09-04T20:19:11.966Z,25.80
2018-09-04T20:21:40.501Z,25.80
2018-09-04T20:24:08.899Z,25.77
2018-09-04T20:26:37.318Z,25.73
2018-09-04T20:29:05.839Z,25.60
2018-09-04T20:31:34.487Z,25.93
2018-09-04T20:34:03.208Z,25.03
2018-09-04T20:36:31.553Z,27.37
2018-09-04T20:38:59.970Z,26.23
2018-09-04T20:41:28.396Z,26.83
2018-09-04T20:43:56.857Z,26.17
2018-09-04T20:46:25.255Z,27.10
2018-09-04T20:48:53.718Z,25.87
2018-09-04T20:51:22.142Z,27.13
2018-09-04T20:53:50.645Z,27.23
2018-09-04T20:56:19.100Z,27.50
2018-09-04T20:58:59.116Z,27.57
2018-09-04T21:01:38.872Z,27.47
2018-09-04T21:04:18.470Z,29.13
2018-09-04T21:06:51.100Z,28.30
2018-09-04T21:09:28.421Z,28.17
2018-09-04T21:11:56.828Z,28.50
2018-09-04T21:14:25.337Z,28.63
2018-09-04T21:18:23.176Z,28.73
2018-09-04T21:20:51.556Z,29.53
2018-09-04T21:23:19.985Z,30.97
2018-09-04T21:25:48.473Z,30.93
2018-09-04T21:28:16.924Z,31.27
2018-09-04T21:30:45.333Z,30.57
2018-09-04T21:33:14.193Z,28.93
2018-09-04T21:35:42.517Z,29.83
2018-09-04T21:38:10.918Z,30.53
2018-09-04T21:40:39.389Z,30.53
2018-09-04T21:43:08.040Z,33.50
2018-09-04T21:45:36.796Z,30.93
2018-09-04T21:48:05.193Z,29.73
2018-09-04T21:50:33.584Z,31.00
2018-09-04T21:53:02.058Z,31.30
2018-09-04T21:55:30.502Z,31.20
2018-09-04T21:57:58.892Z,29.63
2018-09-04T22:00:28.328Z,30.33
2018-09-04T22:02:57.804Z,29.27
2018-09-04T22:05:26.859Z,28.93
2018-09-04T22:07:56.687Z,31.53
2018-09-04T22:10:25.773Z,31.30
2018-09-04T22:12:54.161Z,33.30
2018-09-04T22:15:23.166Z,33.23
2018-09-04T22:17:51.589Z,32.53
2018-09-04T22:20:19.965Z,32.20
2018-09-04T22:22:48.352Z,31.63
2018-09-04T22:25:16.781Z,31.10
2018-09-04T22:27:45.174Z,30.93
2018-09-04T22:30:15.262Z,31.70
2018-09-04T22:32:43.671Z,30.23
2018-09-04T22:35:12.374Z,32.10
2018-09-04T22:37:40.931Z,29.83
2018-09-04T22:40:09.556Z,33.03
2018-09-04T22:42:41.230Z,33.13
2018-09-04T22:45:09.871Z,32.27
2018-09-04T22:47:39.852Z,32.23
2018-09-04T22:50:13.730Z,34.37
2018-09-04T22:52:42.435Z,32.80
2018-09-04T22:55:12.822Z,35.13
2018-09-04T22:57:42.138Z,35.40
2018-09-04T23:00:11.436Z,37.17
2018-09-04T23:02:39.787Z,39.63
2018-09-04T23:05:08.325Z,37.47
2018-09-04T23:07:36.648Z,38.97
2018-09-04T23:16:51.852Z,46.43
2018-09-04T23:19:20.269Z,47.97
2018-09-04T23:21:48.659Z,51.27
2018-09-04T23:24:17.075Z,50.37
2018-09-04T23:26:45.393Z,51.57
2018-09-04T23:29:13.742Z,54.37
2018-09-04T23:31:42.132Z,61.83
2018-09-04T23:34:10.513Z,64.10
2018-09-04T23:36:41.438Z,59.53
2018-09-04T23:39:09.932Z,57.10
2018-09-04T23:41:38.424Z,59.67
2018-09-04T23:44:06.909Z,60.67
2018-09-04T23:46:35.357Z,55.80
2018-09-04T23:49:03.869Z,57.50
2018-09-04T23:51:32.572Z,53.97
2018-09-04T23:54:01.275Z,57.43
2018-09-04T23:56:29.628Z,56.43
2018-09-04T23:58:58.021Z,57.90
